Time;durP1;ratioP1;P1;durP2;ratioP2;P2;SDS_P1;SDS_P2;PMS_P1;PMS_P2;Temp;Humidity;BMP_temperature;BMP_pressure;BME280_temperature;BME280_humidity;BME280_pressure;Samples;Min_cycle;Max_cycle;Signal;HPM_P1;HPM_P2
2021/03/17 00:02:05;;;;;;;0.70;0.50;;;;;;;;;;5016453;28;21053;-77
2021/03/17 00:04:31;;;;;;;0.70;0.50;;;;;;;;;;5014988;28;20424;-75
2021/03/17 00:06:57;;;;;;;0.70;0.40;;;;;;;;;;5034142;28;20529;-77
2021/03/17 00:09:23;;;;;;;1.00;0.90;;;;;;;;;;5027798;28;20419;-77
2021/03/17 00:11:49;;;;;;;0.70;0.60;;;;;;;;;;5022072;28;20463;-75
2021/03/17 00:14:15;;;;;;;0.70;0.40;;;;;;;;;;5022896;28;20423;-76
2021/03/17 00:16:41;;;;;;;0.70;0.50;;;;;;;;;;5039609;28;20413;-75
2021/03/17 00:19:07;;;;;;;0.70;0.50;;;;;;;;;;5020045;28;20501;-75
2021/03/17 00:21:36;;;;;;;0.70;0.50;;;;;;;;;;5039158;28;20476;-76
2021/03/17 00:24:02;;;;;;;0.80;0.60;;;;;;;;;;5043871;28;20769;-76
2021/03/17 00:26:28;;;;;;;0.70;0.50;;;;;;;;;;5018181;28;20481;-76
2021/03/17 00:28:54;;;;;;;0.70;0.47;;;;;;;;;;5028010;28;20410;-76
2021/03/17 00:31:20;;;;;;;0.70;0.50;;;;;;;;;;5038626;28;20483;-76
2021/03/17 00:33:46;;;;;;;0.70;0.40;;;;;;;;;;5040150;28;20402;-76
2021/03/17 00:36:11;;;;;;;0.80;0.70;;;;;;;;;;5039443;28;20476;-76
2021/03/17 00:38:37;;;;;;;0.70;0.50;;;;;;;;;;5040010;28;20487;-76
2021/03/17 00:41:03;;;;;;;0.70;0.40;;;;;;;;;;5040477;28;20459;-76
2021/03/17 00:43:32;;;;;;;1.00;0.60;;;;;;;;;;5040497;28;20407;-75
2021/03/17 00:45:58;;;;;;;0.70;0.40;;;;;;;;;;5059390;28;20486;-75
2021/03/17 00:48:24;;;;;;;0.70;0.50;;;;;;;;;;5022998;28;20423;-76
2021/03/17 00:50:50;;;;;;;0.70;0.50;;;;;;;;;;5037187;28;20471;-76
2021/03/17 00:53:16;;;;;;;0.70;0.50;;;;;;;;;;5020568;28;20976;-77
2021/03/17 00:55:42;;;;;;;0.70;0.60;;;;;;;;;;5021440;28;20565;-76
2021/03/17 00:58:08;;;;;;;0.70;0.50;;;;;;;;;;5020157;28;20458;-75
2021/03/17 01:00:34;;;;;;;0.83;0.83;;;;;;;;;;5036118;28;20414;-76
2021/03/17 01:03:02;;;;;;;0.70;0.50;;;;;;;;;;5019137;28;20444;-75
2021/03/17 01:05:29;;;;;;;0.80;0.60;;;;;;;;;;5050916;28;20501;-77
2021/03/17 01:07:55;;;;;;;0.70;0.57;;;;;;;;;;5036574;28;20448;-76
2021/03/17 01:10:23;;;;;;;1.33;1.17;;;;;;;;;;5036902;28;20501;-76
2021/03/17 01:12:49;;;;;;;0.80;0.60;;;;;;;;;;5037426;28;20390;-76
2021/03/17 01:15:16;;;;;;;0.70;0.50;;;;;;;;;;5020075;28;20431;-76
2021/03/17 01:17:42;;;;;;;0.70;0.50;;;;;;;;;;5037347;28;20446;-76
2021/03/17 01:20:09;;;;;;;0.70;0.40;;;;;;;;;;5019672;28;20479;-75
2021/03/17 01:22:35;;;;;;;0.70;0.50;;;;;;;;;;5033086;28;20421;-75
2021/03/17 01:25:01;;;;;;;0.70;0.53;;;;;;;;;;5043916;28;20465;-77
2021/03/17 01:27:29;;;;;;;0.70;0.50;;;;;;;;;;5038312;28;20413;-77
2021/03/17 01:29:56;;;;;;;0.70;0.50;;;;;;;;;;5032678;28;20422;-76
2021/03/17 01:32:22;;;;;;;0.70;0.50;;;;;;;;;;5035638;28;20410;-76
2021/03/17 01:34:48;;;;;;;0.70;0.43;;;;;;;;;;5046299;28;20426;-76
2021/03/17 01:37:14;;;;;;;0.80;0.60;;;;;;;;;;5035635;28;20420;-76
2021/03/17 01:39:39;;;;;;;6.80;0.83;;;;;;;;;;5035082;28;20931;-76
2021/03/17 01:42:06;;;;;;;0.70;0.40;;;;;;;;;;5035181;28;20783;-76
2021/03/17 01:44:32;;;;;;;0.70;0.60;;;;;;;;;;5035326;28;20808;-76
2021/03/17 01:46:58;;;;;;;0.70;0.40;;;;;;;;;;5053794;28;20448;-77
2021/03/17 01:49:23;;;;;;;0.70;0.40;;;;;;;;;;5036116;28;20425;-77
2021/03/17 01:51:52;;;;;;;0.70;0.50;;;;;;;;;;5036410;28;20403;-75
2021/03/17 01:54:18;;;;;;;0.70;0.50;;;;;;;;;;5033403;28;20783;-77
2021/03/17 01:56:44;;;;;;;0.70;0.50;;;;;;;;;;5020992;28;20380;-76
2021/03/17 01:59:10;;;;;;;0.70;0.40;;;;;;;;;;5015085;28;20420;-76
2021/03/17 02:01:36;;;;;;;0.70;0.47;;;;;;;;;;5032759;28;20415;-76
2021/03/17 02:04:03;;;;;;;0.70;0.50;;;;;;;;;;5032495;28;20450;-75
2021/03/17 02:06:29;;;;;;;1.00;0.70;;;;;;;;;;5014957;28;20453;-75
2021/03/17 02:08:55;;;;;;;0.70;0.50;;;;;;;;;;5032783;28;20403;-76
2021/03/17 02:11:21;;;;;;;0.70;0.40;;;;;;;;;;5032757;28;20467;-75
2021/03/17 02:13:58;;;;;;;0.70;0.60;;;;;;;;;;5032822;28;20492;-76
2021/03/17 02:16:24;;;;;;;84.37;74.10;;;;;;;;;;5015214;28;20474;-76
2021/03/17 02:19:08;;;;;;;139.70;108.07;;;;;;;;;;5014636;28;20412;-76
2021/03/17 02:21:53;;;;;;;187.33;103.80;;;;;;;;;;5032296;28;20404;-76
2021/03/17 02:24:31;;;;;;;0.70;0.50;;;;;;;;;;5014590;28;20438;-76
2021/03/17 02:27:09;;;;;;;0.93;0.70;;;;;;;;;;5032271;28;20456;-74
2021/03/17 02:29:38;;;;;;;0.70;0.50;;;;;;;;;;5032158;28;20899;-76
2021/03/17 02:32:29;;;;;;;232.07;113.23;;;;;;;;;;5031362;28;20395;-75
2021/03/17 02:34:55;;;;;;;138.80;85.87;;;;;;;;;;5014178;28;20444;-78
2021/03/17 02:37:25;;;;;;;109.53;90.60;;;;;;;;;;5042458;28;20408;-76
2021/03/17 02:40:03;;;;;;;43.23;38.37;;;;;;;;;;5019107;28;20407;-77
2021/03/17 02:42:32;;;;;;;141.97;88.13;;;;;;;;;;5018125;28;20721;-77
2021/03/17 02:45:04;;;;;;;113.03;67.93;;;;;;;;;;5014704;28;20908;-77
2021/03/17 02:47:32;;;;;;;212.20;83.13;;;;;;;;;;5015929;28;20408;-76
2021/03/17 02:50:03;;;;;;;180.13;79.03;;;;;;;;;;5015259;28;20432;-76
2021/03/17 02:52:31;;;;;;;205.77;90.27;;;;;;;;;;5033101;28;20443;-77
2021/03/17 02:54:57;;;;;;;219.97;88.33;;;;;;;;;;5032359;28;20448;-75
2021/03/17 02:57:25;;;;;;;269.53;93.07;;;;;;;;;;5001160;28;20441;-75
2021/03/17 02:59:53;;;;;;;283.57;81.43;;;;;;;;;;5032750;28;20404;-75
2021/03/17 03:02:20;;;;;;;247.47;87.93;;;;;;;;;;5010721;28;20418;-75
2021/03/17 03:04:46;;;;;;;151.43;74.53;;;;;;;;;;5029152;28;20427;-76
2021/03/17 03:07:12;;;;;;;1.03;0.93;;;;;;;;;;5033805;28;20385;-74
2021/03/17 03:09:39;;;;;;;89.37;53.40;;;;;;;;;;5033052;28;20527;-75
2021/03/17 03:12:06;;;;;;;188.67;71.57;;;;;;;;;;5021205;28;20424;-76
2021/03/17 03:14:34;;;;;;;221.33;74.90;;;;;;;;;;5034435;28;20431;-76
2021/03/17 03:17:00;;;;;;;322.67;100.97;;;;;;;;;;5034940;28;20465;-75
2021/03/17 03:19:29;;;;;;;264.17;81.63;;;;;;;;;;5021407;28;20212;-77
2021/03/17 03:21:55;;;;;;;306.67;84.80;;;;;;;;;;5028443;28;20424;-77
2021/03/17 03:24:22;;;;;;;214.77;77.87;;;;;;;;;;5027594;28;20789;-77
2021/03/17 03:26:56;;;;;;;29.57;27.13;;;;;;;;;;5046207;28;20989;-77
2021/03/17 03:29:22;;;;;;;163.20;72.27;;;;;;;;;;5027405;28;20386;-76
2021/03/17 03:31:48;;;;;;;303.23;86.20;;;;;;;;;;5025653;28;20416;-77
2021/03/17 03:34:14;;;;;;;308.07;102.20;;;;;;;;;;5026001;28;20465;-77
2021/03/17 03:36:40;;;;;;;323.23;103.82;;;;;;;;;;5050284;28;20452;-75
2021/03/17 03:39:07;;;;;;;97.50;55.77;;;;;;;;;;5062117;28;20188;-77
2021/03/17 03:41:33;;;;;;;218.43;71.07;;;;;;;;;;5062275;28;20410;-76
2021/03/17 03:43:59;;;;;;;290.90;94.07;;;;;;;;;;5062463;28;20409;-76
2021/03/17 03:46:25;;;;;;;164.00;89.20;;;;;;;;;;5047866;28;20534;-76
2021/03/17 03:48:51;;;;;;;118.23;57.00;;;;;;;;;;5047905;28;20442;-76
2021/03/17 03:51:18;;;;;;;243.67;85.27;;;;;;;;;;5049332;28;20472;-77
2021/03/17 03:53:47;;;;;;;230.13;89.37;;;;;;;;;;5047876;28;20424;-76
2021/03/17 03:56:24;;;;;;;272.98;75.75;;;;;;;;;;5044920;28;20802;-76
2021/03/17 03:58:54;;;;;;;275.50;73.77;;;;;;;;;;5064183;28;20172;-75
2021/03/17 04:01:44;;;;;;;223.97;68.63;;;;;;;;;;5063437;28;20445;-77
2021/03/17 04:04:11;;;;;;;234.70;68.60;;;;;;;;;;5046723;28;20423;-77
2021/03/17 04:06:37;;;;;;;314.40;81.68;;;;;;;;;;5059751;28;20450;-76
2021/03/17 04:09:05;;;;;;;344.05;90.05;;;;;;;;;;5042044;28;20231;-75
2021/03/17 04:11:31;;;;;;;340.30;87.25;;;;;;;;;;5059151;28;20165;-77
2021/03/17 04:13:58;;;;;;;328.00;80.88;;;;;;;;;;5041491;28;20531;-76
2021/03/17 04:16:25;;;;;;;238.60;80.67;;;;;;;;;;5040628;28;20194;-76
2021/03/17 04:18:55;;;;;;;226.70;73.77;;;;;;;;;;5040319;28;20502;-75
2021/03/17 04:21:25;;;;;;;221.33;64.07;;;;;;;;;;5040506;28;20411;-76
2021/03/17 04:23:51;;;;;;;263.10;76.10;;;;;;;;;;5059607;28;20394;-78
2021/03/17 04:26:18;;;;;;;250.60;76.97;;;;;;;;;;5031885;28;20469;-76
2021/03/17 04:28:46;;;;;;;213.03;61.70;;;;;;;;;;5038480;28;20769;-77
2021/03/17 04:31:13;;;;;;;241.13;78.77;;;;;;;;;;5019997;28;20404;-75
2021/03/17 04:33:39;;;;;;;151.47;67.87;;;;;;;;;;5037883;28;20457;-76
2021/03/17 04:36:09;;;;;;;248.50;74.67;;;;;;;;;;5041580;28;20431;-76
2021/03/17 04:38:35;;;;;;;220.07;74.00;;;;;;;;;;5058099;28;20500;-77
2021/03/17 04:41:02;;;;;;;0.90;0.70;;;;;;;;;;5043698;28;20537;-75
2021/03/17 04:43:28;;;;;;;201.40;71.17;;;;;;;;;;5042099;28;20412;-77
2021/03/17 04:45:54;;;;;;;0.80;0.77;;;;;;;;;;5059492;28;20551;-76
2021/03/17 04:48:20;;;;;;;0.70;0.50;;;;;;;;;;5063931;28;20399;-79
2021/03/17 04:50:47;;;;;;;0.77;0.60;;;;;;;;;;5045340;28;20770;-77
2021/03/17 04:53:14;;;;;;;0.70;0.50;;;;;;;;;;5056225;28;20407;-77
2021/03/17 04:55:40;;;;;;;0.70;0.50;;;;;;;;;;5055600;28;20451;-77
2021/03/17 04:58:09;;;;;;;0.70;0.40;;;;;;;;;;5038256;28;20450;-77
2021/03/17 05:00:37;;;;;;;0.70;0.50;;;;;;;;;;5056603;28;20867;-77
2021/03/17 05:03:04;;;;;;;0.97;0.50;;;;;;;;;;5066477;28;20404;-78
2021/03/17 05:05:31;;;;;;;0.70;0.47;;;;;;;;;;5050269;28;20535;-78
2021/03/17 05:07:58;;;;;;;0.70;0.40;;;;;;;;;;5063920;28;20464;-78
2021/03/17 05:10:26;;;;;;;0.70;0.43;;;;;;;;;;5043231;28;20385;-78
2021/03/17 05:12:53;;;;;;;0.70;0.50;;;;;;;;;;5041479;28;20407;-78
2021/03/17 05:15:19;;;;;;;0.70;0.50;;;;;;;;;;5039051;28;20434;-74
2021/03/17 05:17:50;;;;;;;0.70;0.50;;;;;;;;;;5035768;28;20469;-74
2021/03/17 05:20:18;;;;;;;0.70;0.50;;;;;;;;;;5035653;28;20442;-75
2021/03/17 05:22:44;;;;;;;0.70;0.50;;;;;;;;;;5015374;28;20413;-75
2021/03/17 05:25:12;;;;;;;0.90;0.60;;;;;;;;;;5025216;23;20480;-70
2021/03/17 05:27:38;;;;;;;0.70;0.50;;;;;;;;;;5006892;28;20410;-70
2021/03/17 05:30:08;;;;;;;0.70;0.50;;;;;;;;;;5008224;28;20404;-70
2021/03/17 05:32:35;;;;;;;0.70;0.50;;;;;;;;;;5012449;28;20397;-71
2021/03/17 05:35:05;;;;;;;2.40;0.77;;;;;;;;;;5012915;28;20466;-70
2021/03/17 05:37:31;;;;;;;0.90;0.83;;;;;;;;;;4993268;28;20448;-70
2021/03/17 05:39:58;;;;;;;0.70;0.40;;;;;;;;;;5059484;23;20520;-65
2021/03/17 05:42:25;;;;;;;0.80;0.80;;;;;;;;;;5080391;28;20423;-68
2021/03/17 05:44:51;;;;;;;0.70;0.50;;;;;;;;;;5080898;28;20414;-69
2021/03/17 05:47:18;;;;;;;0.70;0.50;;;;;;;;;;5064309;28;20445;-68
2021/03/17 05:49:45;;;;;;;0.70;0.50;;;;;;;;;;5079730;28;20450;-68
2021/03/17 05:52:11;;;;;;;0.70;0.40;;;;;;;;;;5065630;28;20414;-67
2021/03/17 05:54:37;;;;;;;0.70;0.50;;;;;;;;;;5072189;28;20437;-67
2021/03/17 05:57:04;;;;;;;0.70;0.50;;;;;;;;;;5071719;28;20410;-67
2021/03/17 05:59:30;;;;;;;2.87;0.90;;;;;;;;;;5072957;28;20497;-68
2021/03/17 06:01:57;;;;;;;0.70;0.50;;;;;;;;;;5057834;28;20468;-69
2021/03/17 06:04:24;;;;;;;0.70;0.50;;;;;;;;;;5074204;28;20418;-67
2021/03/17 06:06:51;;;;;;;0.70;0.60;;;;;;;;;;5071672;28;20800;-68
2021/03/17 06:09:17;;;;;;;0.70;0.50;;;;;;;;;;5069984;28;20439;-69
2021/03/17 06:11:43;;;;;;;0.70;0.50;;;;;;;;;;5072530;28;20404;-67
2021/03/17 06:14:13;;;;;;;0.73;0.67;;;;;;;;;;5080583;28;20380;-67
2021/03/17 06:16:40;;;;;;;18.17;1.57;;;;;;;;;;5076818;28;20425;-65
2021/03/17 06:19:07;;;;;;;0.70;0.50;;;;;;;;;;5053548;28;20418;-68
2021/03/17 06:21:33;;;;;;;0.80;0.70;;;;;;;;;;5075898;28;20409;-67
2021/03/17 06:23:59;;;;;;;0.70;0.50;;;;;;;;;;5081106;28;20488;-68
2021/03/17 06:26:25;;;;;;;0.70;0.60;;;;;;;;;;5074507;28;20926;-69
2021/03/17 06:28:51;;;;;;;0.70;0.50;;;;;;;;;;5081956;28;20900;-68
2021/03/17 06:31:18;;;;;;;0.70;0.50;;;;;;;;;;5081952;28;20409;-68
2021/03/17 06:33:44;;;;;;;0.70;0.50;;;;;;;;;;5081703;28;20406;-67
2021/03/17 06:36:15;;;;;;;1.00;0.67;;;;;;;;;;5081049;28;20410;-68
2021/03/17 06:38:43;;;;;;;1.13;1.03;;;;;;;;;;5080839;28;20550;-69
2021/03/17 06:41:09;;;;;;;0.70;0.47;;;;;;;;;;5081738;28;20521;-67
2021/03/17 06:43:40;;;;;;;0.80;0.50;;;;;;;;;;5083797;28;20430;-67
2021/03/17 06:46:07;;;;;;;0.70;0.50;;;;;;;;;;5081377;28;20460;-67
2021/03/17 06:48:33;;;;;;;0.70;0.50;;;;;;;;;;5077711;28;20380;-68
2021/03/17 06:51:03;;;;;;;0.70;0.47;;;;;;;;;;5080486;28;20404;-67
2021/03/17 06:53:49;;;;;;;0.70;0.50;;;;;;;;;;5079908;28;20453;-67
2021/03/17 06:56:15;;;;;;;0.70;0.53;;;;;;;;;;5071506;28;20419;-68
2021/03/17 06:58:42;;;;;;;0.80;0.70;;;;;;;;;;5078399;28;20895;-68
2021/03/17 07:01:26;;;;;;;0.70;0.50;;;;;;;;;;5058244;28;20397;-67
2021/03/17 07:03:53;;;;;;;0.77;0.63;;;;;;;;;;5078593;28;20389;-68
2021/03/17 07:06:19;;;;;;;0.70;0.50;;;;;;;;;;5058505;28;20834;-68
2021/03/17 07:08:45;;;;;;;0.70;0.40;;;;;;;;;;5081205;28;20460;-67
2021/03/17 07:11:11;;;;;;;0.70;0.50;;;;;;;;;;5081141;28;20396;-69
2021/03/17 07:13:37;;;;;;;0.70;0.50;;;;;;;;;;5079762;28;20426;-66
2021/03/17 07:16:03;;;;;;;0.70;0.50;;;;;;;;;;5064376;28;20402;-66
2021/03/17 07:18:33;;;;;;;0.70;0.50;;;;;;;;;;5079527;28;20500;-68
2021/03/17 07:21:00;;;;;;;0.70;0.50;;;;;;;;;;5077845;28;20434;-68
2021/03/17 07:23:26;;;;;;;0.70;0.50;;;;;;;;;;5073711;28;20427;-67
2021/03/17 07:26:08;;;;;;;7.00;0.90;;;;;;;;;;5075284;28;20462;-66
2021/03/17 07:28:49;;;;;;;0.80;0.70;;;;;;;;;;5076577;28;20403;-67
2021/03/17 07:31:17;;;;;;;0.70;0.60;;;;;;;;;;5077390;28;20680;-67
2021/03/17 07:33:43;;;;;;;0.93;0.70;;;;;;;;;;5061603;28;20408;-67
2021/03/17 07:36:09;;;;;;;0.70;0.60;;;;;;;;;;5059294;28;20381;-67
2021/03/17 07:38:35;;;;;;;1.03;1.03;;;;;;;;;;5077914;28;20470;-67
2021/03/17 07:41:01;;;;;;;0.70;0.50;;;;;;;;;;5051309;28;20452;-68
2021/03/17 07:43:27;;;;;;;0.70;0.50;;;;;;;;;;5056371;28;20452;-68
2021/03/17 07:45:54;;;;;;;0.80;0.60;;;;;;;;;;5062454;28;20469;-69
2021/03/17 07:48:20;;;;;;;0.70;0.50;;;;;;;;;;5080564;28;20403;-67
2021/03/17 07:50:47;;;;;;;1.43;0.80;;;;;;;;;;5073695;28;20435;-68
2021/03/17 07:53:16;;;;;;;0.70;0.50;;;;;;;;;;5056152;28;20450;-70
2021/03/17 07:55:45;;;;;;;0.70;0.50;;;;;;;;;;5070790;28;20432;-70
2021/03/17 07:58:11;;;;;;;1.10;0.50;;;;;;;;;;5067772;28;20419;-70
2021/03/17 08:00:37;;;;;;;0.70;0.50;;;;;;;;;;5052424;28;20406;-69
2021/03/17 08:03:05;;;;;;;0.90;0.70;;;;;;;;;;5072289;28;20962;-69
2021/03/17 08:05:32;;;;;;;0.80;0.70;;;;;;;;;;5077506;28;20516;-70
2021/03/17 08:07:58;;;;;;;1.10;1.00;;;;;;;;;;5070188;28;20418;-71
2021/03/17 08:10:24;;;;;;;0.70;0.50;;;;;;;;;;5068061;28;20437;-70
2021/03/17 08:12:50;;;;;;;0.70;0.60;;;;;;;;;;5069474;28;20385;-70
2021/03/17 08:15:16;;;;;;;0.70;0.67;;;;;;;;;;5070124;28;20434;-69
2021/03/17 08:17:43;;;;;;;0.70;0.50;;;;;;;;;;5052987;28;20398;-69
2021/03/17 08:20:13;;;;;;;1.10;0.80;;;;;;;;;;5070825;28;20431;-70
2021/03/17 08:22:40;;;;;;;0.90;0.73;;;;;;;;;;5049911;28;20767;-69
2021/03/17 08:25:07;;;;;;;0.70;0.50;;;;;;;;;;5065959;28;20788;-69
2021/03/17 08:27:34;;;;;;;0.97;0.67;;;;;;;;;;5069673;28;20409;-70
2021/03/17 08:30:13;;;;;;;0.80;0.67;;;;;;;;;;5073487;28;20894;-69
2021/03/17 08:33:02;;;;;;;0.80;0.50;;;;;;;;;;5051276;28;20436;-68
2021/03/17 08:35:47;;;;;;;0.90;0.50;;;;;;;;;;5072256;28;20409;-69
2021/03/17 08:38:14;;;;;;;1.57;0.87;;;;;;;;;;5071710;28;20420;-69
2021/03/17 08:40:49;;;;;;;0.70;0.50;;;;;;;;;;5065434;28;20538;-69
2021/03/17 08:43:41;;;;;;;1.00;0.80;;;;;;;;;;5075030;28;20435;-70
2021/03/17 08:46:10;;;;;;;0.70;0.50;;;;;;;;;;5069635;28;20456;-69
2021/03/17 08:48:54;;;;;;;1.43;1.33;;;;;;;;;;5071370;28;20407;-69
2021/03/17 08:51:39;;;;;;;0.70;0.50;;;;;;;;;;5070860;28;20495;-69
2021/03/17 08:54:25;;;;;;;0.80;0.60;;;;;;;;;;5067320;28;20409;-71
2021/03/17 08:56:50;;;;;;;0.70;0.40;;;;;;;;;;5060647;28;20965;-71
2021/03/17 08:59:17;;;;;;;0.70;0.40;;;;;;;;;;5060437;28;20523;-71
2021/03/17 09:01:43;;;;;;;0.90;0.67;;;;;;;;;;5085822;28;20593;-70
2021/03/17 09:04:09;;;;;;;0.73;0.53;;;;;;;;;;5066078;28;20942;-69
2021/03/17 09:06:35;;;;;;;0.70;0.70;;;;;;;;;;5068372;28;20980;-71
2021/03/17 09:09:17;;;;;;;0.70;0.50;;;;;;;;;;5059969;28;20410;-71
2021/03/17 09:11:43;;;;;;;0.70;0.50;;;;;;;;;;5069309;28;20927;-71
2021/03/17 09:14:09;;;;;;;1.10;0.77;;;;;;;;;;5072796;28;20399;-72
2021/03/17 09:16:36;;;;;;;0.70;0.50;;;;;;;;;;5072931;28;20426;-70
2021/03/17 09:19:06;;;;;;;1.10;1.00;;;;;;;;;;5073026;28;20415;-71
2021/03/17 09:21:36;;;;;;;0.70;0.50;;;;;;;;;;5072417;28;20402;-70
2021/03/17 09:24:02;;;;;;;4.50;1.67;;;;;;;;;;5072950;28;20408;-70
2021/03/17 09:26:29;;;;;;;0.70;0.50;;;;;;;;;;5072970;28;20457;-71
2021/03/17 09:28:55;;;;;;;1.00;0.70;;;;;;;;;;5075366;28;20452;-71
2021/03/17 09:31:22;;;;;;;1.67;1.57;;;;;;;;;;5059496;28;20738;-70
2021/03/17 09:33:49;;;;;;;1.87;1.40;;;;;;;;;;5073869;28;20413;-70
2021/03/17 09:36:19;;;;;;;1.53;0.90;;;;;;;;;;5077762;28;20408;-70
2021/03/17 09:38:48;;;;;;;4.20;1.40;;;;;;;;;;5079642;28;20398;-71
2021/03/17 09:41:22;;;;;;;0.70;0.50;;;;;;;;;;5076373;28;20424;-70
2021/03/17 09:43:48;;;;;;;0.80;0.60;;;;;;;;;;5080507;28;20405;-70
2021/03/17 09:46:25;;;;;;;0.70;0.50;;;;;;;;;;5056529;28;20446;-71
2021/03/17 09:48:52;;;;;;;1.30;0.60;;;;;;;;;;5067917;28;20424;-71
2021/03/17 09:51:20;;;;;;;1.30;0.90;;;;;;;;;;5068386;28;20406;-71
2021/03/17 09:53:47;;;;;;;0.80;0.63;;;;;;;;;;5064092;28;20421;-69
2021/03/17 09:56:13;;;;;;;1.10;0.90;;;;;;;;;;5071568;28;20388;-70
2021/03/17 09:58:39;;;;;;;0.77;0.67;;;;;;;;;;5058160;28;20512;-69
2021/03/17 10:01:12;;;;;;;1.10;0.80;;;;;;;;;;5058439;28;20458;-71
2021/03/17 10:03:42;;;;;;;0.80;0.73;;;;;;;;;;5082866;28;20411;-71
2021/03/17 10:06:08;;;;;;;1.07;0.60;;;;;;;;;;5079212;28;20457;-70
2021/03/17 10:08:34;;;;;;;1.00;0.90;;;;;;;;;;5081610;28;20433;-70
2021/03/17 10:11:01;;;;;;;1.00;0.90;;;;;;;;;;5080237;28;20443;-69
2021/03/17 10:13:27;;;;;;;1.63;1.13;;;;;;;;;;5078088;28;20394;-71
2021/03/17 10:15:54;;;;;;;0.80;0.70;;;;;;;;;;5081234;28;20745;-71
2021/03/17 10:18:20;;;;;;;1.43;0.90;;;;;;;;;;5075406;28;20422;-71
2021/03/17 10:20:47;;;;;;;0.90;0.73;;;;;;;;;;5065496;28;20768;-70
2021/03/17 10:23:13;;;;;;;0.70;0.60;;;;;;;;;;5062956;28;20407;-70
2021/03/17 10:25:39;;;;;;;1.33;1.23;;;;;;;;;;5063468;28;20446;-70
2021/03/17 10:28:08;;;;;;;2.50;0.80;;;;;;;;;;5071247;28;20375;-70
2021/03/17 10:30:36;;;;;;;0.97;0.70;;;;;;;;;;5071011;28;20443;-69
2021/03/17 10:33:03;;;;;;;1.83;1.73;;;;;;;;;;5070874;28;20425;-70
2021/03/17 10:35:30;;;;;;;1.00;0.90;;;;;;;;;;5070951;28;20900;-70
2021/03/17 10:38:00;;;;;;;1.03;0.60;;;;;;;;;;5073758;28;20514;-70
2021/03/17 10:40:27;;;;;;;1.37;1.03;;;;;;;;;;5070919;28;20413;-71
2021/03/17 10:42:58;;;;;;;0.87;0.70;;;;;;;;;;5071406;28;20403;-69
2021/03/17 10:45:25;;;;;;;1.17;0.80;;;;;;;;;;5066358;28;20810;-69
2021/03/17 10:47:51;;;;;;;1.00;0.70;;;;;;;;;;5046905;28;20510;-72
2021/03/17 10:50:18;;;;;;;0.70;0.60;;;;;;;;;;5057646;28;20939;-70
2021/03/17 10:52:46;;;;;;;0.70;0.60;;;;;;;;;;5066277;28;20417;-68
2021/03/17 10:55:16;;;;;;;0.73;0.60;;;;;;;;;;5068276;28;20403;-68
2021/03/17 10:57:43;;;;;;;0.80;0.60;;;;;;;;;;5066310;28;20447;-70
2021/03/17 11:00:13;;;;;;;0.70;0.50;;;;;;;;;;5066547;28;20391;-70
2021/03/17 11:02:40;;;;;;;5.70;1.50;;;;;;;;;;5068160;28;20396;-70
2021/03/17 11:05:07;;;;;;;9.13;7.70;;;;;;;;;;5070639;28;20909;-70
2021/03/17 11:07:48;;;;;;;11.40;1.90;;;;;;;;;;5075735;28;20441;-69
2021/03/17 11:10:32;;;;;;;0.90;0.80;;;;;;;;;;5057865;28;20426;-68
2021/03/17 11:13:21;;;;;;;1.47;0.87;;;;;;;;;;5081636;28;20424;-70
2021/03/17 11:15:55;;;;;;;2.77;2.50;;;;;;;;;;5097678;28;20758;-71
2021/03/17 11:18:31;;;;;;;1.33;0.83;;;;;;;;;;5101556;28;20402;-69
2021/03/17 11:21:03;;;;;;;0.90;0.80;;;;;;;;;;5089652;28;20463;-70
2021/03/17 11:23:34;;;;;;;3.23;1.00;;;;;;;;;;5077183;28;20836;-71
2021/03/17 11:26:00;;;;;;;4.30;1.50;;;;;;;;;;5072097;28;20475;-70
2021/03/17 11:28:27;;;;;;;2.13;1.47;;;;;;;;;;5064272;28;20406;-70
2021/03/17 11:30:55;;;;;;;2.70;0.87;;;;;;;;;;5035267;28;20461;-71
2021/03/17 11:33:21;;;;;;;0.80;0.80;;;;;;;;;;5070252;28;20909;-74
2021/03/17 11:35:48;;;;;;;2.10;1.03;;;;;;;;;;5067831;28;20453;-71
2021/03/17 11:38:15;;;;;;;3.90;2.30;;;;;;;;;;5066408;28;20422;-71
2021/03/17 11:40:41;;;;;;;2.60;0.93;;;;;;;;;;5087697;22;20860;-73
2021/03/17 11:43:12;;;;;;;1.63;1.43;;;;;;;;;;5086144;28;20405;-73
2021/03/17 11:45:39;;;;;;;3.37;1.93;;;;;;;;;;5080842;28;20465;-73
2021/03/17 11:48:05;;;;;;;1.30;1.07;;;;;;;;;;5079172;28;20486;-73
2021/03/17 11:50:31;;;;;;;1.00;0.70;;;;;;;;;;5061592;28;20602;-74
2021/03/17 11:52:57;;;;;;;2.23;1.27;;;;;;;;;;5052645;28;20427;-74
2021/03/17 11:55:25;;;;;;;1.50;1.00;;;;;;;;;;5063013;28;20457;-74
2021/03/17 11:57:51;;;;;;;1.10;1.00;;;;;;;;;;5061881;28;20480;-74
2021/03/17 12:00:18;;;;;;;2.07;1.10;;;;;;;;;;5072806;28;20964;-73
2021/03/17 12:02:44;;;;;;;1.27;0.90;;;;;;;;;;5064711;28;20447;-74
2021/03/17 12:05:10;;;;;;;0.90;0.77;;;;;;;;;;5085751;28;20409;-74
2021/03/17 12:07:37;;;;;;;2.33;1.10;;;;;;;;;;5065536;28;20483;-75
2021/03/17 12:10:07;;;;;;;1.50;1.20;;;;;;;;;;5067602;28;20494;-74
2021/03/17 12:12:33;;;;;;;1.10;0.80;;;;;;;;;;5066913;28;20437;-75
2021/03/17 12:14:59;;;;;;;1.30;0.70;;;;;;;;;;5055086;28;20403;-74
2021/03/17 12:17:25;;;;;;;2.03;0.93;;;;;;;;;;5058025;28;20413;-74
2021/03/17 12:19:51;;;;;;;0.80;0.53;;;;;;;;;;5078697;28;20481;-74
2021/03/17 12:22:17;;;;;;;1.33;0.50;;;;;;;;;;5064881;28;20446;-74
2021/03/17 12:24:43;;;;;;;1.30;0.83;;;;;;;;;;5059658;28;20791;-74
2021/03/17 12:27:10;;;;;;;0.90;0.80;;;;;;;;;;5070084;28;20486;-74
2021/03/17 12:29:36;;;;;;;1.00;0.83;;;;;;;;;;5067933;28;20899;-74
2021/03/17 12:32:02;;;;;;;1.37;1.00;;;;;;;;;;5072180;28;20406;-73
2021/03/17 12:34:28;;;;;;;3.53;3.23;;;;;;;;;;5072018;28;20915;-74
2021/03/17 12:36:55;;;;;;;1.50;1.03;;;;;;;;;;5064258;28;20824;-74
2021/03/17 12:39:21;;;;;;;1.93;1.83;;;;;;;;;;5075710;28;20850;-75
2021/03/17 12:41:47;;;;;;;0.90;0.60;;;;;;;;;;5057717;28;20385;-73
2021/03/17 12:44:13;;;;;;;0.90;0.80;;;;;;;;;;5064589;28;20749;-73
2021/03/17 12:46:39;;;;;;;0.70;0.50;;;;;;;;;;5037801;28;20553;-73
2021/03/17 12:49:07;;;;;;;0.70;0.50;;;;;;;;;;5067498;28;20393;-73
2021/03/17 12:51:33;;;;;;;0.80;0.70;;;;;;;;;;5072673;28;20451;-74
2021/03/17 12:53:59;;;;;;;1.10;0.60;;;;;;;;;;5078598;28;20380;-74
2021/03/17 12:56:25;;;;;;;1.23;0.70;;;;;;;;;;5079823;28;20381;-75
2021/03/17 12:58:51;;;;;;;0.90;0.60;;;;;;;;;;5079097;28;20388;-74
2021/03/17 13:01:17;;;;;;;0.70;0.50;;;;;;;;;;5073721;28;20461;-74
2021/03/17 13:03:43;;;;;;;2.47;0.83;;;;;;;;;;5049751;28;20388;-74
2021/03/17 13:06:10;;;;;;;1.57;1.03;;;;;;;;;;5072901;28;20522;-75
2021/03/17 13:08:36;;;;;;;0.73;0.60;;;;;;;;;;5071348;28;20399;-74
2021/03/17 13:11:02;;;;;;;0.70;0.60;;;;;;;;;;5071472;28;20426;-73
2021/03/17 13:13:28;;;;;;;51.00;34.90;;;;;;;;;;5068493;28;20381;-73
2021/03/17 13:15:56;;;;;;;1.23;0.70;;;;;;;;;;5058655;28;20551;-75
2021/03/17 13:18:22;;;;;;;0.80;0.60;;;;;;;;;;5076052;28;20768;-75
2021/03/17 13:20:48;;;;;;;0.80;0.60;;;;;;;;;;5077917;28;20400;-75
2021/03/17 13:23:14;;;;;;;0.80;0.50;;;;;;;;;;5078213;28;20388;-72
2021/03/17 13:25:40;;;;;;;0.77;0.60;;;;;;;;;;5071230;28;20919;-74
2021/03/17 13:28:06;;;;;;;0.87;0.60;;;;;;;;;;5049938;28;20481;-72
2021/03/17 13:30:32;;;;;;;1.00;0.80;;;;;;;;;;5062562;28;20491;-75
2021/03/17 13:32:58;;;;;;;1.20;0.93;;;;;;;;;;5057934;28;20400;-74
2021/03/17 13:35:24;;;;;;;0.70;0.40;;;;;;;;;;5047459;28;20398;-74
2021/03/17 13:37:50;;;;;;;0.70;0.60;;;;;;;;;;5063706;28;20399;-74
2021/03/17 13:40:17;;;;;;;0.70;0.50;;;;;;;;;;5053982;28;21099;-74
2021/03/17 13:42:43;;;;;;;0.87;0.63;;;;;;;;;;5073009;28;20373;-73
2021/03/17 13:45:11;;;;;;;0.90;0.60;;;;;;;;;;5075491;28;20804;-73
2021/03/17 13:47:37;;;;;;;0.80;0.60;;;;;;;;;;5057832;28;20378;-75
2021/03/17 13:50:05;;;;;;;0.70;0.40;;;;;;;;;;5075206;28;20456;-74
2021/03/17 13:52:30;;;;;;;0.70;0.50;;;;;;;;;;5072339;28;20405;-73
2021/03/17 13:54:56;;;;;;;2.53;2.07;;;;;;;;;;5060651;28;20407;-72
2021/03/17 13:57:22;;;;;;;1.67;1.43;;;;;;;;;;5065834;28;20400;-76
2021/03/17 13:59:48;;;;;;;1.00;0.87;;;;;;;;;;5069424;28;20429;-78
2021/03/17 14:02:14;;;;;;;1.10;0.60;;;;;;;;;;5063688;28;20405;-76
2021/03/17 14:04:40;;;;;;;0.80;0.60;;;;;;;;;;5065706;28;20427;-75
2021/03/17 14:07:06;;;;;;;1.00;0.50;;;;;;;;;;5071046;28;20985;-77
2021/03/17 14:09:32;;;;;;;0.80;0.73;;;;;;;;;;5064158;28;21474;-79
2021/03/17 14:11:58;;;;;;;0.80;0.60;;;;;;;;;;5071511;28;20941;-81
2021/03/17 14:14:24;;;;;;;0.80;0.60;;;;;;;;;;5051121;28;20398;-78
2021/03/17 14:16:50;;;;;;;0.70;0.60;;;;;;;;;;5068455;28;20434;-77
2021/03/17 14:19:16;;;;;;;0.70;0.50;;;;;;;;;;5056980;28;20410;-77
2021/03/17 14:21:42;;;;;;;1.00;0.50;;;;;;;;;;5067273;28;20946;-77
2021/03/17 14:24:09;;;;;;;0.77;0.50;;;;;;;;;;5067140;28;20404;-77
2021/03/17 14:26:35;;;;;;;0.70;0.40;;;;;;;;;;5048751;28;20484;-78
2021/03/17 14:29:01;;;;;;;0.80;0.50;;;;;;;;;;5056673;28;20405;-78
2021/03/17 14:31:27;;;;;;;0.70;0.40;;;;;;;;;;5056198;28;20410;-78
2021/03/17 14:33:53;;;;;;;0.70;0.50;;;;;;;;;;5066802;28;20421;-78
2021/03/17 14:36:19;;;;;;;0.70;0.50;;;;;;;;;;5045380;28;20416;-77
2021/03/17 14:38:45;;;;;;;0.70;0.50;;;;;;;;;;5072072;28;20421;-78
2021/03/17 14:41:12;;;;;;;0.70;0.60;;;;;;;;;;5055857;28;20522;-79